createdAt,value
2023-01-27T00:02:46.375Z,64.44
2023-01-27T00:07:50.444Z,64.42
2023-01-27T00:13:12.800Z,64.35
2023-01-27T00:18:16.477Z,64.43
2023-01-27T00:23:43.827Z,64.35
2023-01-27T00:28:48.264Z,64.23
2023-01-27T00:33:54.367Z,64.23
2023-01-27T00:38:57.803Z,64.18
2023-01-27T00:44:01.901Z,64.65
2023-01-27T00:49:05.391Z,64.68
2023-01-27T00:54:09.073Z,64.42
2023-01-27T00:59:12.581Z,64.42
2023-01-27T01:04:18.834Z,64.29
2023-01-27T01:09:25.442Z,63.92
2023-01-27T01:14:28.820Z,63.98
2023-01-27T01:19:33.197Z,64.21
2023-01-27T01:24:43.302Z,63.81
2023-01-27T01:29:47.063Z,63.80
2023-01-27T01:34:50.443Z,63.95
2023-01-27T01:39:55.192Z,63.87
2023-01-27T01:45:27.992Z,63.83
2023-01-27T01:50:32.656Z,63.79
2023-01-27T01:55:38.042Z,63.73
2023-01-27T02:00:44.343Z,63.43
2023-01-27T02:05:48.150Z,63.29
2023-01-27T02:10:54.794Z,63.30
2023-01-27T02:15:58.355Z,63.21
2023-01-27T02:21:02.401Z,63.30
2023-01-27T02:26:19.851Z,63.18
2023-01-27T02:31:25.317Z,63.24
2023-01-27T02:36:32.059Z,63.13
2023-01-27T02:41:40.926Z,63.23
2023-01-27T02:46:44.588Z,63.12
2023-01-27T02:51:48.196Z,62.99
2023-01-27T02:56:52.097Z,62.84
2023-01-27T03:01:55.475Z,63.27
2023-01-27T03:06:59.055Z,63.00
2023-01-27T03:12:21.658Z,63.00
2023-01-27T03:17:43.891Z,62.70
2023-01-27T03:22:47.655Z,62.55
2023-01-27T03:27:53.072Z,62.56
2023-01-27T03:33:05.722Z,62.65
2023-01-27T03:38:39.599Z,62.62
2023-01-27T03:44:01.584Z,62.41
2023-01-27T03:49:10.514Z,62.32
2023-01-27T03:54:14.650Z,62.23
2023-01-27T03:59:18.323Z,62.72
2023-01-27T04:04:40.139Z,62.22
2023-01-27T04:09:43.328Z,61.95
2023-01-27T04:14:46.600Z,61.39
2023-01-27T04:19:49.829Z,60.95
2023-01-27T04:24:53.380Z,61.35
2023-01-27T04:29:57.378Z,62.15
2023-01-27T04:35:00.889Z,61.26
2023-01-27T04:40:04.806Z,61.44
2023-01-27T04:45:08.766Z,61.73
2023-01-27T04:50:14.600Z,61.65
2023-01-27T04:55:18.046Z,61.54
2023-01-27T05:00:22.007Z,61.28
2023-01-27T05:05:25.637Z,61.59
2023-01-27T05:10:29.367Z,61.91
2023-01-27T05:15:33.880Z,61.12
2023-01-27T05:20:37.247Z,61.11
2023-01-27T05:25:44.542Z,61.25
2023-01-27T05:30:48.144Z,61.54
2023-01-27T05:35:52.426Z,61.60
2023-01-27T05:41:02.490Z,61.46
2023-01-27T05:46:14.493Z,61.77
2023-01-27T05:51:19.975Z,61.68
2023-01-27T05:56:24.035Z,61.66
2023-01-27T06:01:30.725Z,61.75
2023-01-27T06:06:34.627Z,61.86
2023-01-27T06:11:37.975Z,61.55
2023-01-27T06:16:41.438Z,61.49
2023-01-27T06:21:45.121Z,60.84
2023-01-27T06:26:48.480Z,60.58
2023-01-27T06:31:51.913Z,60.59
2023-01-27T06:36:55.232Z,61.02
2023-01-27T06:41:58.696Z,61.21
2023-01-27T06:47:02.239Z,61.20
2023-01-27T06:52:05.726Z,61.57
2023-01-27T06:57:11.975Z,61.44
2023-01-27T07:02:15.354Z,61.80
2023-01-27T07:07:18.704Z,61.44
2023-01-27T07:12:22.445Z,61.60
2023-01-27T07:17:26.283Z,61.01
2023-01-27T07:22:33.410Z,61.05
2023-01-27T07:27:36.687Z,61.01
2023-01-27T07:32:40.311Z,60.72
2023-01-27T07:37:43.983Z,60.70
2023-01-27T07:42:48.597Z,60.49
2023-01-27T07:47:52.260Z,60.36
2023-01-27T07:53:02.866Z,60.20
2023-01-27T07:58:11.120Z,59.81
2023-01-27T08:03:26.458Z,59.89
2023-01-27T08:08:30.330Z,59.73
2023-01-27T08:13:35.733Z,59.99
2023-01-27T08:18:42.968Z,59.99
2023-01-27T08:23:48.421Z,60.01
2023-01-27T08:28:53.144Z,60.37
2023-01-27T08:33:59.057Z,60.24
2023-01-27T08:39:04.716Z,60.27
2023-01-27T08:44:11.003Z,59.98
2023-01-27T08:49:16.823Z,59.68
2023-01-27T08:54:23.191Z,59.77
2023-01-27T08:59:27.392Z,59.77
2023-01-27T09:04:32.661Z,59.61
2023-01-27T09:09:41.920Z,59.51
2023-01-27T09:14:46.113Z,59.01
2023-01-27T09:19:51.251Z,59.04
2023-01-27T09:24:55.658Z,59.24
2023-01-27T09:29:59.789Z,58.82
2023-01-27T09:35:05.377Z,58.95
2023-01-27T09:40:35.062Z,59.06
2023-01-27T09:46:13.279Z,59.15
2023-01-27T09:51:29.553Z,59.69
2023-01-27T09:56:45.039Z,59.45
2023-01-27T10:01:55.461Z,59.29
2023-01-27T10:07:38.087Z,59.49
2023-01-27T10:13:22.243Z,59.65
2023-01-27T10:18:46.363Z,59.65
2023-01-27T10:24:09.755Z,59.47
2023-01-27T10:29:33.433Z,59.50
2023-01-27T10:34:41.954Z,60.18
2023-01-27T10:40:00.291Z,60.29
2023-01-27T10:45:24.869Z,59.33
2023-01-27T10:50:37.127Z,59.21
2023-01-27T10:56:03.532Z,59.17
2023-01-27T11:01:26.205Z,59.54
2023-01-27T11:06:36.531Z,59.51
2023-01-27T11:11:47.058Z,60.50
2023-01-27T11:16:54.482Z,62.22
2023-01-27T11:22:07.531Z,58.53
2023-01-27T11:27:28.401Z,58.21
2023-01-27T11:32:47.907Z,58.31
2023-01-27T11:38:00.667Z,58.48
2023-01-27T11:43:17.484Z,58.15
2023-01-27T11:48:23.463Z,58.25
2023-01-27T11:53:37.137Z,58.00
2023-01-27T11:59:04.732Z,58.65
2023-01-27T12:04:21.581Z,58.80
2023-01-27T12:09:38.418Z,58.88
2023-01-27T12:14:49.218Z,58.98
2023-01-27T12:19:57.970Z,59.22
2023-01-27T12:25:04.997Z,59.24
2023-01-27T12:30:21.822Z,59.81
2023-01-27T12:35:35.370Z,59.99
2023-01-27T12:40:44.816Z,60.19
2023-01-27T12:46:13.527Z,60.20
2023-01-27T12:51:22.163Z,60.74
2023-01-27T12:56:26.206Z,60.58
2023-01-27T13:01:41.845Z,60.99
2023-01-27T13:06:49.818Z,60.82
2023-01-27T13:11:56.798Z,61.12
2023-01-27T13:17:01.507Z,60.61
2023-01-27T13:22:06.318Z,60.66
2023-01-27T13:27:17.588Z,61.09
2023-01-27T13:32:32.962Z,60.90
2023-01-27T13:37:53.557Z,61.06
2023-01-27T13:43:26.519Z,60.80
2023-01-27T13:48:41.875Z,60.92
2023-01-27T13:53:48.480Z,61.01
2023-01-27T13:59:11.417Z,61.07
2023-01-27T14:04:39.682Z,61.41
2023-01-27T14:10:20.106Z,62.20
2023-01-27T14:15:30.990Z,60.68
2023-01-27T14:20:37.820Z,60.98
2023-01-27T14:25:54.922Z,61.32
2023-01-27T14:31:24.879Z,60.83
2023-01-27T14:36:54.005Z,60.87
2023-01-27T14:42:14.424Z,61.12
2023-01-27T14:47:32.379Z,61.12
2023-01-27T14:52:42.165Z,60.93
2023-01-27T14:58:05.223Z,60.93
2023-01-27T15:03:33.136Z,60.59
2023-01-27T15:08:55.699Z,59.75
2023-01-27T15:14:24.115Z,59.68
2023-01-27T15:19:36.287Z,59.61
2023-01-27T15:25:27.107Z,59.64
2023-01-27T15:30:38.679Z,59.40
2023-01-27T15:35:42.509Z,59.09
2023-01-27T15:41:15.684Z,58.96
2023-01-27T15:46:26.026Z,59.08
2023-01-27T15:51:34.995Z,58.52
2023-01-27T15:56:49.167Z,57.52
2023-01-27T16:02:17.000Z,56.35
2023-01-27T16:07:32.978Z,56.86
2023-01-27T16:12:43.459Z,61.55
2023-01-27T16:18:00.905Z,54.45
2023-01-27T16:23:28.232Z,53.81
2023-01-27T16:28:34.660Z,53.75
2023-01-27T16:33:41.904Z,53.96
2023-01-27T16:38:47.286Z,55.82
2023-01-27T16:44:01.436Z,54.20
2023-01-27T16:49:20.455Z,53.29
2023-01-27T16:54:29.823Z,53.00
2023-01-27T16:59:39.004Z,52.87
2023-01-27T17:04:53.436Z,53.31
2023-01-27T17:10:00.438Z,53.43
2023-01-27T17:15:29.867Z,53.86
2023-01-27T17:20:38.120Z,56.04
2023-01-27T17:25:42.015Z,55.55
2023-01-27T17:30:47.422Z,53.97
2023-01-27T17:35:56.663Z,53.61
2023-01-27T17:41:03.659Z,53.61
2023-01-27T17:46:10.170Z,54.08
2023-01-27T17:51:20.385Z,54.42
2023-01-27T17:56:30.289Z,54.51
2023-01-27T18:01:35.216Z,54.64
2023-01-27T18:06:42.916Z,54.79
2023-01-27T18:11:57.455Z,55.06
2023-01-27T18:17:22.762Z,55.18
2023-01-27T18:22:28.365Z,55.69
2023-01-27T18:27:37.111Z,54.94
2023-01-27T18:32:44.337Z,55.19
2023-01-27T18:38:04.026Z,55.60
2023-01-27T18:43:10.596Z,56.16
2023-01-27T18:48:18.016Z,55.45
2023-01-27T18:53:22.439Z,56.66
2023-01-27T18:58:26.449Z,54.52
2023-01-27T19:03:35.250Z,54.74
2023-01-27T19:08:41.070Z,54.68
2023-01-27T19:13:46.348Z,54.74
2023-01-27T19:18:50.204Z,54.60
2023-01-27T19:26:20.842Z,55.22
2023-01-27T19:32:36.086Z,54.13
2023-01-27T19:38:52.996Z,56.54
2023-01-27T19:44:48.976Z,54.95
2023-01-27T19:51:04.371Z,53.10
2023-01-27T19:57:01.909Z,53.24
2023-01-27T20:03:17.940Z,53.55
2023-01-27T20:08:48.016Z,54.17
2023-01-27T20:14:14.559Z,54.31
2023-01-27T20:19:23.105Z,54.53
2023-01-27T20:32:04.900Z,54.95
2023-01-27T20:38:27.774Z,55.53
2023-01-27T20:44:59.545Z,55.63
2023-01-27T20:51:33.471Z,55.94
2023-01-27T20:57:31.776Z,56.31
2023-01-27T21:03:36.585Z,56.43
2023-01-27T21:09:54.551Z,56.84
2023-01-27T21:16:18.784Z,56.88
2023-01-27T21:22:38.539Z,56.75
2023-01-27T21:28:17.903Z,57.17
2023-01-27T21:34:31.985Z,57.36
2023-01-27T21:40:56.302Z,57.07
2023-01-27T21:46:40.673Z,56.91
2023-01-27T21:52:57.745Z,57.06
2023-01-27T22:02:23.114Z,57.42
2023-01-27T22:08:33.064Z,57.53
2023-01-27T22:14:09.818Z,58.00
2023-01-27T22:20:34.479Z,57.92
2023-01-27T22:26:51.989Z,57.56
2023-01-27T22:33:16.200Z,57.36
2023-01-27T22:39:30.590Z,57.71
2023-01-27T22:45:55.352Z,57.86
2023-01-27T22:52:09.643Z,57.35
2023-01-27T23:05:19.018Z,57.54
2023-01-27T23:11:25.009Z,57.42
2023-01-27T23:17:38.708Z,57.50
2023-01-27T23:23:13.019Z,57.76
2023-01-27T23:28:49.300Z,57.75
2023-01-27T23:35:13.559Z,57.65
2023-01-27T23:42:29.769Z,57.55
2023-01-27T23:48:08.298Z,57.61
